Time;durP1;ratioP1;P1;durP2;ratioP2;P2;SDS_P1;SDS_P2;PMS_P1;PMS_P2;Temp;Humidity;BMP_temperature;BMP_pressure;BME280_temperature;BME280_humidity;BME280_pressure;Samples;Min_cycle;Max_cycle;Signal;HPM_P1;HPM_P2
2023/07/05 00:01:25;;;;;;;12.38;5.90;;;15.40;99.90;;;;;;4823282;29;20100;-85
2023/07/05 00:03:51;;;;;;;14.90;6.22;;;15.30;99.90;;;;;;4821933;29;20046;-84
2023/07/05 00:06:17;;;;;;;13.45;6.22;;;15.40;99.90;;;;;;4823159;29;20053;-85
2023/07/05 00:08:43;;;;;;;12.00;6.03;;;15.40;99.90;;;;;;4828202;24;20073;-85
2023/07/05 00:11:11;;;;;;;14.07;6.15;;;15.60;99.90;;;;;;4822588;29;20058;-84
2023/07/05 00:13:37;;;;;;;13.93;6.50;;;15.30;99.90;;;;;;4823008;29;20080;-85
2023/07/05 00:16:03;;;;;;;14.90;6.75;;;15.40;99.90;;;;;;4823711;29;20071;-84
2023/07/05 00:18:29;;;;;;;13.50;6.07;;;15.40;99.90;;;;;;4822898;29;20530;-85
2023/07/05 00:21:03;;;;;;;12.95;5.97;;;15.60;99.90;;;;;;4823121;29;20042;-85
2023/07/05 00:23:31;;;;;;;12.77;6.25;;;15.40;99.90;;;;;;4824362;29;20050;-85
2023/07/05 00:25:57;;;;;;;14.18;6.30;;;15.30;99.90;;;;;;4822527;29;20129;-85
2023/07/05 00:28:23;;;;;;;16.10;6.38;;;15.30;99.90;;;;;;4822532;29;20193;-85
2023/07/05 00:30:49;;;;;;;15.30;6.25;;;15.30;99.90;;;;;;4822354;29;20134;-85
2023/07/05 00:33:15;;;;;;;11.88;6.20;;;15.30;99.90;;;;;;4822909;29;20050;-85
2023/07/05 00:35:51;;;;;;;17.05;6.40;;;15.80;99.90;;;;;;4825275;29;20119;-84
2023/07/05 00:38:18;;;;;;;14.00;6.35;;;15.40;99.90;;;;;;4840248;29;20046;-85
2023/07/05 00:40:44;;;;;;;13.57;5.93;;;15.30;99.90;;;;;;4835165;29;20043;-85
2023/07/05 00:43:18;;;;;;;14.88;6.40;;;15.30;99.90;;;;;;4824458;29;20054;-84
2023/07/05 00:45:54;;;;;;;14.68;6.80;;;15.30;99.90;;;;;;4822428;29;20046;-84
2023/07/05 00:48:51;;;;;;;13.63;6.22;;;15.30;99.90;;;;;;4823883;29;20511;-85
2023/07/05 00:51:22;;;;;;;12.60;5.97;;;15.40;99.90;;;;;;4822427;29;20054;-85
2023/07/05 00:53:48;;;;;;;12.40;5.95;;;15.20;99.90;;;;;;4822453;29;20043;-85
2023/07/05 00:56:22;;;;;;;14.90;6.57;;;15.30;99.90;;;;;;4822568;29;20058;-84
2023/07/05 00:58:50;;;;;;;14.38;6.70;;;15.20;99.90;;;;;;4822578;29;20046;-84
2023/07/05 01:01:25;;;;;;;11.60;5.57;;;15.30;99.90;;;;;;4821762;29;20073;-84
2023/07/05 01:03:58;;;;;;;12.48;6.20;;;15.30;99.90;;;;;;4823213;29;20137;-84
2023/07/05 01:06:25;;;;;;;15.10;6.78;;;15.20;99.90;;;;;;4822987;29;20129;-85
2023/07/05 01:08:51;;;;;;;11.82;5.72;;;16.20;99.90;;;;;;4823190;29;20146;-84
2023/07/05 01:11:48;;;;;;;15.30;6.00;;;16.10;99.90;;;;;;4823489;29;20074;-84
2023/07/05 01:14:35;;;;;;;16.02;6.45;;;15.20;99.90;;;;;;4821688;29;20065;-85
2023/07/05 01:17:18;;;;;;;12.75;6.40;;;15.30;99.90;;;;;;4821461;29;20171;-84
2023/07/05 01:19:59;;;;;;;16.10;6.60;;;15.30;99.90;;;;;;4815740;29;20054;-85
2023/07/05 01:22:46;;;;;;;15.60;6.88;;;15.20;99.90;;;;;;4813315;29;20462;-84
2023/07/05 01:25:27;;;;;;;14.32;6.97;;;15.20;99.90;;;;;;4822872;29;20504;-84
2023/07/05 01:27:56;;;;;;;16.73;7.82;;;15.10;99.90;;;;;;4820592;29;20117;-83
2023/07/05 01:30:39;;;;;;;15.45;8.07;;;15.10;99.90;;;;;;4822094;29;20050;-83
2023/07/05 01:33:23;;;;;;;15.63;7.47;;;15.00;99.90;;;;;;4820901;29;20082;-83
2023/07/05 01:35:52;;;;;;;15.65;7.50;;;15.60;99.90;;;;;;4822635;29;20069;-83
2023/07/05 01:38:18;;;;;;;14.88;7.85;;;14.90;99.90;;;;;;4823148;29;20495;-83
2023/07/05 01:40:53;;;;;;;13.57;7.45;;;14.90;99.90;;;;;;4841121;29;20065;-83
2023/07/05 01:43:20;;;;;;;17.98;8.40;;;15.20;99.90;;;;;;4841431;29;20042;-84
2023/07/05 01:46:24;;;;;;;18.75;8.38;;;14.80;99.90;;;;;;4821930;29;20486;-83
2023/07/05 01:49:05;;;;;;;14.98;8.18;;;14.60;99.90;;;;;;4822360;29;20502;-84
2023/07/05 01:51:49;;;;;;;16.83;8.05;;;14.60;99.90;;;;;;4821976;29;20066;-83
2023/07/05 01:54:27;;;;;;;;;;;14.50;99.90;;;;;;4821856;29;20218;-83
2023/07/05 01:57:20;;;;;;;17.20;8.77;;;14.50;99.90;;;;;;4821285;29;20428;-83
2023/07/05 01:59:54;;;;;;;20.83;9.38;;;14.40;99.90;;;;;;4822273;29;20050;-84
2023/07/05 02:02:23;;;;;;;19.00;9.48;;;14.40;99.90;;;;;;4820301;29;20414;-83
2023/07/05 02:04:50;;;;;;;19.00;10.00;;;14.40;99.90;;;;;;4805831;29;20453;-84
2023/07/05 02:07:15;;;;;;;16.48;9.02;;;14.40;99.90;;;;;;4821738;29;20082;-84
2023/07/05 02:09:42;;;;;;;18.73;9.45;;;14.30;99.90;;;;;;4822121;29;20078;-83
2023/07/05 02:12:08;;;;;;;19.30;9.13;;;15.00;99.90;;;;;;4821783;29;20066;-83
2023/07/05 02:14:34;;;;;;;18.08;9.13;;;14.30;99.90;;;;;;4823182;29;20047;-83
2023/07/05 02:17:00;;;;;;;18.38;10.23;;;15.20;99.90;;;;;;4822359;29;20546;-82
2023/07/05 02:19:26;;;;;;;17.85;9.63;;;14.70;99.90;;;;;;4822964;29;20042;-83
2023/07/05 02:21:52;;;;;;;19.20;9.82;;;14.30;99.90;;;;;;4822685;29;20207;-82
2023/07/05 02:24:20;;;;;;;20.75;9.88;;;14.30;99.90;;;;;;4821098;29;20050;-82
2023/07/05 02:26:47;;;;;;;17.15;10.02;;;14.30;99.90;;;;;;4821971;29;20399;-83
2023/07/05 02:29:13;;;;;;;21.55;10.18;;;14.30;99.90;;;;;;4822862;29;20046;-82
2023/07/05 02:31:38;;;;;;;17.52;10.23;;;14.30;99.90;;;;;;4821636;29;20411;-82
2023/07/05 02:34:04;;;;;;;21.13;10.60;;;14.50;99.90;;;;;;4824804;29;20050;-82
2023/07/05 02:36:29;;;;;;;21.35;11.52;;;14.20;99.90;;;;;;4824660;29;20050;-82
2023/07/05 02:38:55;;;;;;;19.45;10.35;;;14.20;99.90;;;;;;4825701;29;20050;-82
2023/07/05 02:41:21;;;;;;;19.85;10.48;;;14.20;99.90;;;;;;4826471;29;20054;-82
2023/07/05 02:43:47;;;;;;;18.08;10.55;;;14.20;99.90;;;;;;4824471;29;20087;-82
2023/07/05 02:46:13;;;;;;;21.33;11.40;;;14.20;99.90;;;;;;4824424;29;20083;-82
2023/07/05 02:48:39;;;;;;;20.08;10.63;;;14.70;99.90;;;;;;4825004;29;20079;-82
2023/07/05 02:51:05;;;;;;;22.88;11.55;;;14.20;99.90;;;;;;4823519;29;20081;-83
2023/07/05 02:53:30;;;;;;;19.88;11.57;;;14.20;99.90;;;;;;4824642;29;20554;-84
2023/07/05 02:55:56;;;;;;;25.83;11.95;;;14.60;99.90;;;;;;4825932;29;20038;-85
2023/07/05 02:58:22;;;;;;;22.50;11.52;;;14.20;99.90;;;;;;4824223;29;20127;-85
2023/07/05 03:00:47;;;;;;;23.40;11.48;;;14.20;99.90;;;;;;4825440;29;20082;-85
2023/07/05 03:03:13;;;;;;;22.70;11.63;;;14.30;99.90;;;;;;4824415;29;20047;-84
2023/07/05 03:05:40;;;;;;;19.88;11.45;;;14.20;99.90;;;;;;4825274;29;20130;-83
2023/07/05 03:08:06;;;;;;;22.05;11.57;;;14.20;99.90;;;;;;4824160;29;20082;-83
2023/07/05 03:10:36;;;;;;;19.15;11.40;;;14.20;99.90;;;;;;4824235;29;20089;-83
2023/07/05 03:13:01;;;;;;;22.80;11.13;;;14.20;99.90;;;;;;4823429;29;20092;-83
2023/07/05 03:15:27;;;;;;;23.02;11.70;;;14.20;99.90;;;;;;4825617;29;20074;-83
2023/07/05 03:17:52;;;;;;;22.65;11.45;;;14.20;99.90;;;;;;4825199;29;20106;-83
2023/07/05 03:20:19;;;;;;;20.48;11.35;;;14.20;99.90;;;;;;4824349;29;20050;-84
2023/07/05 03:22:45;;;;;;;24.13;11.98;;;15.00;99.90;;;;;;4824210;29;20065;-84
2023/07/05 03:25:10;;;;;;;23.50;11.63;;;14.20;99.90;;;;;;4825335;29;20043;-83
2023/07/05 03:27:36;;;;;;;23.17;11.35;;;14.20;99.90;;;;;;4823264;29;20099;-83
2023/07/05 03:30:02;;;;;;;21.58;11.32;;;14.30;99.90;;;;;;4825150;29;20074;-83
2023/07/05 03:32:29;;;;;;;20.80;11.02;;;14.30;99.90;;;;;;4823953;29;20125;-83
2023/07/05 03:34:55;;;;;;;18.00;10.80;;;14.30;99.90;;;;;;4823803;29;20049;-83
2023/07/05 03:37:21;;;;;;;17.65;9.45;;;14.40;99.90;;;;;;4825825;29;20046;-83
2023/07/05 03:39:50;;;;;;;16.92;10.13;;;14.40;99.90;;;;;;4831241;29;20042;-83
2023/07/05 03:42:15;;;;;;;18.20;9.93;;;14.40;99.90;;;;;;4833006;29;20472;-84
2023/07/05 03:44:41;;;;;;;19.77;9.65;;;14.50;99.90;;;;;;4829216;29;20050;-83
2023/07/05 03:47:07;;;;;;;19.92;10.18;;;15.00;99.90;;;;;;4845321;29;20050;-83
2023/07/05 03:49:32;;;;;;;17.60;10.10;;;14.50;99.90;;;;;;4844239;29;20087;-83
2023/07/05 03:51:59;;;;;;;17.52;9.50;;;14.60;99.90;;;;;;4823787;29;20455;-84
2023/07/05 03:54:25;;;;;;;17.38;9.70;;;14.60;99.90;;;;;;4824758;29;20133;-83
2023/07/05 03:56:50;;;;;;;17.77;9.40;;;14.70;99.90;;;;;;4826266;29;20088;-83
2023/07/05 03:59:16;;;;;;;19.10;9.02;;;14.80;99.90;;;;;;4824110;29;20494;-83
2023/07/05 04:01:44;;;;;;;14.95;8.85;;;14.80;99.90;;;;;;4829715;29;20086;-83
2023/07/05 04:04:10;;;;;;;17.88;9.55;;;14.80;99.90;;;;;;4822431;29;20089;-83
2023/07/05 04:06:36;;;;;;;18.70;9.52;;;14.90;99.90;;;;;;4823731;29;20094;-83
2023/07/05 04:09:01;;;;;;;17.02;8.40;;;14.90;99.90;;;;;;4821925;29;20058;-83
2023/07/05 04:11:27;;;;;;;18.98;9.60;;;15.70;99.90;;;;;;4823504;29;20050;-83
2023/07/05 04:13:54;;;;;;;19.08;10.02;;;14.90;99.90;;;;;;4822850;29;20518;-83
2023/07/05 04:16:23;;;;;;;16.73;9.45;;;14.90;99.90;;;;;;4823701;29;20448;-83
2023/07/05 04:18:55;;;;;;;14.32;8.70;;;15.00;99.90;;;;;;4823069;29;20455;-83
2023/07/05 04:21:21;;;;;;;18.15;8.73;;;15.00;99.90;;;;;;4823631;29;20480;-84
2023/07/05 04:23:47;;;;;;;16.58;8.93;;;15.10;99.90;;;;;;4822612;29;20050;-83
2023/07/05 04:26:15;;;;;;;15.95;7.85;;;15.10;99.90;;;;;;4823478;29;20042;-84
2023/07/05 04:28:42;;;;;;;15.80;7.75;;;15.20;99.90;;;;;;4824193;29;20413;-83
2023/07/05 04:31:15;;;;;;;14.07;8.43;;;15.20;99.90;;;;;;4822939;29;20050;-83
2023/07/05 04:33:41;;;;;;;14.88;7.65;;;15.40;99.90;;;;;;4824878;29;20476;-83
2023/07/05 04:36:07;;;;;;;13.23;7.38;;;15.30;99.90;;;;;;4823816;29;20046;-83
2023/07/05 04:38:33;;;;;;;13.98;7.35;;;15.30;99.90;;;;;;4822771;29;20058;-83
2023/07/05 04:40:59;;;;;;;13.00;6.18;;;15.40;99.90;;;;;;4822635;29;20414;-83
2023/07/05 04:43:26;;;;;;;12.57;5.63;;;15.40;99.90;;;;;;4823720;29;20103;-83
2023/07/05 04:45:54;;;;;;;10.73;5.40;;;15.40;99.90;;;;;;4822499;29;20125;-83
2023/07/05 04:48:21;;;;;;;10.90;5.25;;;15.60;99.90;;;;;;4822503;29;20042;-83
2023/07/05 04:50:50;;;;;;;9.57;4.35;;;15.40;99.90;;;;;;4822886;29;20046;-83
2023/07/05 04:53:17;;;;;;;10.60;4.13;;;15.30;99.90;;;;;;4822704;29;20563;-84
2023/07/05 04:55:52;;;;;;;9.48;3.78;;;15.20;99.90;;;;;;4822189;29;20042;-83
2023/07/05 04:58:19;;;;;;;8.65;4.03;;;15.00;99.90;;;;;;4823476;29;20078;-83
2023/07/05 05:00:46;;;;;;;9.82;3.70;;;14.80;99.90;;;;;;4823522;29;20530;-83
2023/07/05 05:03:12;;;;;;;10.23;3.95;;;14.60;99.90;;;;;;4822115;29;20042;-82
2023/07/05 05:06:00;;;;;;;9.15;4.05;;;14.80;99.90;;;;;;4823148;29;20112;-83
2023/07/05 05:08:26;;;;;;;11.15;4.40;;;14.40;99.90;;;;;;4820580;29;20687;-82
2023/07/05 05:11:03;;;;;;;10.60;4.30;;;14.50;99.90;;;;;;4821765;29;20503;-82
2023/07/05 05:13:31;;;;;;;9.80;4.40;;;14.10;99.90;;;;;;4822052;29;20050;-82
2023/07/05 05:15:57;;;;;;;9.98;4.22;;;14.10;99.90;;;;;;4822248;29;20065;-82
2023/07/05 05:18:24;;;;;;;10.18;4.72;;;14.00;99.90;;;;;;4823108;29;20058;-82
2023/07/05 05:20:50;;;;;;;10.40;4.60;;;14.90;99.90;;;;;;4823113;29;20092;-82
2023/07/05 05:23:16;;;;;;;10.68;4.38;;;14.00;99.90;;;;;;4823422;29;20070;-81
2023/07/05 05:25:42;;;;;;;9.35;4.32;;;13.90;99.90;;;;;;4827157;29;20065;-82
2023/07/05 05:28:09;;;;;;;9.02;4.00;;;13.90;99.90;;;;;;4841153;29;20046;-82
2023/07/05 05:30:35;;;;;;;10.32;4.50;;;13.90;99.90;;;;;;4840922;29;20057;-82
2023/07/05 05:33:02;;;;;;;8.85;4.00;;;14.00;99.90;;;;;;4840542;29;20083;-82
2023/07/05 05:35:29;;;;;;;11.30;4.07;;;14.00;99.90;;;;;;4841280;29;20399;-82
2023/07/05 05:37:55;;;;;;;8.80;3.88;;;14.10;99.90;;;;;;4841111;29;20053;-82
2023/07/05 05:40:21;;;;;;;9.85;3.85;;;14.10;99.90;;;;;;4840244;29;20042;-82
2023/07/05 05:42:47;;;;;;;11.15;3.90;;;14.10;99.90;;;;;;4840010;29;20053;-82
2023/07/05 05:45:13;;;;;;;10.70;3.88;;;15.10;99.90;;;;;;4841074;29;20529;-82
2023/07/05 05:47:39;;;;;;;9.23;3.85;;;14.30;99.90;;;;;;4840408;29;20479;-82
2023/07/05 05:50:05;;;;;;;10.18;3.60;;;14.30;99.90;;;;;;4840788;29;20054;-81
2023/07/05 05:52:31;;;;;;;11.77;4.25;;;14.30;99.90;;;;;;4840245;29;20387;-82
2023/07/05 05:54:57;;;;;;;10.38;4.15;;;14.30;99.90;;;;;;4838560;29;20137;-82
2023/07/05 05:57:22;;;;;;;11.18;3.78;;;15.10;99.90;;;;;;4839207;29;20144;-81
2023/07/05 05:59:48;;;;;;;9.77;3.85;;;14.40;99.90;;;;;;4839525;29;20060;-81
2023/07/05 06:02:14;;;;;;;11.55;4.30;;;14.40;99.90;;;;;;4840327;29;20038;-81
2023/07/05 06:04:39;;;;;;;9.63;3.70;;;15.10;99.90;;;;;;4841380;29;20056;-82
2023/07/05 06:07:05;;;;;;;8.98;3.92;;;14.40;99.90;;;;;;4840752;29;20534;-82
2023/07/05 06:09:43;;;;;;;11.45;3.55;;;14.40;99.90;;;;;;4844004;29;20058;-83
2023/07/05 06:12:09;;;;;;;8.95;3.55;;;14.40;99.90;;;;;;4843751;29;20054;-80
2023/07/05 06:14:34;;;;;;;9.60;3.78;;;14.50;99.90;;;;;;4836231;29;20433;-81
2023/07/05 06:17:03;;;;;;;9.60;3.67;;;14.50;99.90;;;;;;4817273;29;20559;-83
2023/07/05 06:19:28;;;;;;;9.27;3.63;;;14.50;99.90;;;;;;4826009;29;20086;-82
2023/07/05 06:21:54;;;;;;;10.43;3.90;;;15.20;99.90;;;;;;4825006;29;20069;-83
2023/07/05 06:24:20;;;;;;;8.63;3.75;;;14.50;99.90;;;;;;4817936;29;20054;-82
2023/07/05 06:26:45;;;;;;;10.65;3.90;;;14.40;99.90;;;;;;4815972;29;20046;-81
2023/07/05 06:29:11;;;;;;;11.30;3.70;;;14.40;99.90;;;;;;4816612;29;20832;-81
2023/07/05 06:31:37;;;;;;;14.27;4.18;;;14.50;99.90;;;;;;4815944;29;20054;-79
2023/07/05 06:34:02;;;;;;;10.40;3.70;;;14.60;99.90;;;;;;4820704;29;20081;-79
2023/07/05 06:36:28;;;;;;;9.98;3.40;;;14.80;99.90;;;;;;4825020;29;20084;-81
2023/07/05 06:38:53;;;;;;;10.82;3.80;;;14.90;99.90;;;;;;4824172;29;20050;-80
2023/07/05 06:41:19;;;;;;;10.55;4.13;;;15.30;99.90;;;;;;4825729;29;20103;-80
2023/07/05 06:43:45;;;;;;;9.57;3.80;;;15.10;99.90;;;;;;4825288;29;20046;-80
2023/07/05 06:46:10;;;;;;;9.13;3.10;;;15.10;99.90;;;;;;4825483;29;20046;-80
2023/07/05 06:48:36;;;;;;;12.85;3.60;;;15.30;99.90;;;;;;4825782;29;20487;-79
2023/07/05 06:51:02;;;;;;;9.75;3.50;;;15.60;99.90;;;;;;4823243;29;20117;-80
2023/07/05 06:53:28;;;;;;;10.48;3.80;;;15.40;99.90;;;;;;4825814;29;20046;-80
2023/07/05 06:55:54;;;;;;;9.63;3.60;;;15.40;99.90;;;;;;4825544;29;20038;-85
2023/07/05 06:58:20;;;;;;;12.75;3.40;;;15.40;99.90;;;;;;4822884;29;20503;-81
2023/07/05 07:00:47;;;;;;;11.07;3.92;;;15.70;99.90;;;;;;4817180;29;20050;-81
2023/07/05 07:03:13;;;;;;;10.32;3.65;;;15.30;99.90;;;;;;4818297;29;20057;-81
2023/07/05 07:05:38;;;;;;;9.80;3.72;;;15.20;99.90;;;;;;4821859;29;20054;-81
2023/07/05 07:08:04;;;;;;;9.77;4.07;;;15.20;99.90;;;;;;4817970;29;20364;-81
2023/07/05 07:10:30;;;;;;;9.77;3.80;;;15.20;99.90;;;;;;4815013;29;20053;-82
2023/07/05 07:12:55;;;;;;;9.85;3.70;;;15.20;99.90;;;;;;4823193;29;20053;-80
2023/07/05 07:15:21;;;;;;;10.07;3.40;;;15.00;99.90;;;;;;4825312;29;20040;-80
2023/07/05 07:17:47;;;;;;;9.38;3.10;;;15.50;99.90;;;;;;4820066;29;20139;-80
2023/07/05 07:20:14;;;;;;;10.32;3.30;;;15.00;99.90;;;;;;4819124;29;20546;-80
2023/07/05 07:22:40;;;;;;;9.15;3.45;;;14.90;99.90;;;;;;4830205;29;20403;-80
2023/07/05 07:25:07;;;;;;;9.70;3.47;;;14.90;99.90;;;;;;4819888;29;20062;-80
2023/07/05 07:27:33;;;;;;;9.75;3.35;;;15.00;99.90;;;;;;4823737;29;20042;-80
2023/07/05 07:29:58;;;;;;;10.88;3.40;;;15.20;99.90;;;;;;4824424;29;20129;-80
2023/07/05 07:32:24;;;;;;;9.40;3.58;;;15.30;99.90;;;;;;4824692;29;20047;-84
2023/07/05 07:34:54;;;;;;;15.23;3.38;;;15.80;99.90;;;;;;4824682;29;20038;-80
2023/07/05 07:37:20;;;;;;;8.20;2.92;;;15.40;99.90;;;;;;4823634;29;20129;-81
2023/07/05 07:39:46;;;;;;;11.02;3.40;;;15.40;99.90;;;;;;4823642;29;20054;-82
2023/07/05 07:42:12;;;;;;;9.88;3.45;;;15.50;99.90;;;;;;4811412;29;20046;-82
2023/07/05 07:44:37;;;;;;;10.23;3.05;;;16.40;99.90;;;;;;4806690;29;20754;-81
2023/07/05 07:47:04;;;;;;;8.32;3.15;;;15.30;99.90;;;;;;4825531;29;20046;-82
2023/07/05 07:49:29;;;;;;;11.27;3.22;;;15.40;99.90;;;;;;4841757;29;20053;-83
2023/07/05 07:51:56;;;;;;;8.45;2.97;;;15.40;99.90;;;;;;4841238;29;20558;-82
2023/07/05 07:54:26;;;;;;;9.43;2.95;;;15.30;99.90;;;;;;4840775;29;20399;-82
2023/07/05 07:56:53;;;;;;;10.88;2.95;;;15.50;99.90;;;;;;4841321;29;20050;-81
2023/07/05 07:59:19;;;;;;;8.73;2.72;;;14.80;99.90;;;;;;4842038;29;20144;-82
2023/07/05 08:01:45;;;;;;;8.57;2.38;;;14.70;99.90;;;;;;4840949;29;20521;-83
2023/07/05 08:04:12;;;;;;;6.13;2.00;;;14.30;99.90;;;;;;4823567;29;20459;-80
2023/07/05 08:06:45;;;;;;;7.82;2.20;;;14.30;99.90;;;;;;4823228;29;20050;-83
2023/07/05 08:09:15;;;;;;;8.00;2.40;;;14.20;99.90;;;;;;4822083;29;20054;-81
2023/07/05 08:11:41;;;;;;;10.23;2.50;;;14.40;99.90;;;;;;4830146;29;20049;-81
2023/07/05 08:14:08;;;;;;;6.95;2.30;;;14.50;99.90;;;;;;4841682;29;20046;-82
2023/07/05 08:16:34;;;;;;;10.40;2.20;;;14.40;99.90;;;;;;4840817;29;20167;-81
2023/07/05 08:19:00;;;;;;;6.38;1.95;;;14.50;99.90;;;;;;4842141;29;20129;-82
2023/07/05 08:21:39;;;;;;;6.55;1.98;;;14.30;99.90;;;;;;4840500;29;20132;-82
2023/07/05 08:24:05;;;;;;;4.85;1.60;;;14.30;99.90;;;;;;4840779;29;20073;-82
2023/07/05 08:26:31;;;;;;;7.03;1.90;;;14.10;99.90;;;;;;4841229;29;20053;-82
2023/07/05 08:29:00;;;;;;;5.13;1.60;;;13.80;99.90;;;;;;4839816;29;20049;-82
2023/07/05 08:31:25;;;;;;;7.13;1.90;;;14.70;99.90;;;;;;4841493;29;20065;-81
2023/07/05 08:33:57;;;;;;;4.97;1.70;;;13.40;99.90;;;;;;4840405;29;20407;-82
2023/07/05 08:36:38;;;;;;;7.90;2.83;;;13.30;99.90;;;;;;4838490;29;20062;-81
2023/07/05 08:39:06;;;;;;;7.80;1.85;;;14.40;99.90;;;;;;4839031;29;20520;-82
2023/07/05 08:41:50;;;;;;;7.25;2.03;;;14.30;99.90;;;;;;4840739;29;20064;-82
2023/07/05 08:44:34;;;;;;;;;;;13.50;99.90;;;;;;4840598;29;20524;-82
2023/07/05 08:47:18;;;;;;;6.38;1.90;;;13.00;99.90;;;;;;4838930;29;20296;-82
2023/07/05 08:53:21;;;;;;;5.85;1.77;;;13.60;99.90;;;;;;4749577;30;20098;-81
2023/07/05 08:55:52;;;;;;;6.00;1.90;;;13.60;99.90;;;;;;4804000;29;20053;-81
2023/07/05 08:58:23;;;;;;;6.10;1.80;;;13.00;99.90;;;;;;4820853;29;20055;-81
2023/07/05 09:00:55;;;;;;;8.13;2.10;;;13.00;99.90;;;;;;4822244;29;20122;-80
2023/07/05 09:03:22;;;;;;;6.50;1.83;;;13.00;99.90;;;;;;4820832;29;20128;-80
2023/07/05 09:06:09;;;;;;;6.88;1.85;;;13.00;99.90;;;;;;4821460;29;20054;-80
2023/07/05 09:08:40;;;;;;;7.65;1.83;;;12.90;99.90;;;;;;4822062;29;20150;-80
2023/07/05 09:11:14;;;;;;;7.70;2.30;;;12.80;99.90;;;;;;4822511;29;20398;-80
2023/07/05 09:13:41;;;;;;;6.43;2.00;;;12.80;99.90;;;;;;4822333;29;20133;-80
2023/07/05 09:16:43;;;;;;;5.15;1.92;;;12.80;99.90;;;;;;4823234;29;20136;-81
2023/07/05 09:19:27;;;;;;;6.32;2.13;;;12.70;99.90;;;;;;4786316;29;20154;-80
2023/07/05 09:22:01;;;;;;;6.57;1.90;;;12.60;99.90;;;;;;4820760;29;20050;-80
2023/07/05 09:24:33;;;;;;;6.80;2.10;;;12.60;99.90;;;;;;4821639;29;20437;-81
2023/07/05 09:27:08;;;;;;;7.72;2.42;;;12.50;99.90;;;;;;4817382;29;20375;-80
2023/07/05 09:29:55;;;;;;;7.28;2.20;;;12.40;99.90;;;;;;4823221;29;20058;-79
2023/07/05 09:32:30;;;;;;;7.60;2.28;;;12.30;99.90;;;;;;4821534;29;20043;-81
2023/07/05 09:34:58;;;;;;;9.65;2.40;;;12.30;99.90;;;;;;4821026;29;20062;-79
2023/07/05 09:37:35;;;;;;;9.73;2.22;;;12.40;99.90;;;;;;4811675;29;20137;-79
2023/07/05 09:40:15;;;;;;;6.05;2.05;;;12.30;99.90;;;;;;4818656;29;20050;-79
2023/07/05 09:42:57;;;;;;;9.38;2.30;;;12.30;99.90;;;;;;4814437;29;20054;-79
2023/07/05 09:45:23;;;;;;;7.55;2.67;;;12.30;99.90;;;;;;4807213;29;20062;-78
2023/07/05 09:47:58;;;;;;;8.35;2.20;;;12.30;99.90;;;;;;4826416;29;20042;-78
2023/07/05 09:50:23;;;;;;;8.77;2.55;;;12.80;99.90;;;;;;4841512;29;20056;-79
2023/07/05 09:52:58;;;;;;;12.02;2.83;;;12.50;99.90;;;;;;4842122;29;20129;-80
2023/07/05 09:55:26;;;;;;;10.18;2.35;;;12.60;99.90;;;;;;4843749;29;20100;-79
2023/07/05 09:57:53;;;;;;;7.72;2.30;;;12.70;99.90;;;;;;4844058;29;20060;-80
2023/07/05 10:00:26;;;;;;;11.80;2.85;;;12.80;99.90;;;;;;4826494;29;20046;-79
2023/07/05 10:02:55;;;;;;;6.60;1.88;;;12.70;99.90;;;;;;4816400;29;20050;-79
2023/07/05 10:05:26;;;;;;;10.60;2.40;;;12.80;99.90;;;;;;4816267;29;20053;-79
2023/07/05 10:08:00;;;;;;;7.53;2.38;;;12.90;99.90;;;;;;4817008;29;20153;-80
2023/07/05 10:10:37;;;;;;;11.50;2.17;;;13.00;99.90;;;;;;4812651;29;20054;-79
2023/07/05 10:13:14;;;;;;;8.32;2.25;;;13.00;99.90;;;;;;4818484;29;20053;-80
2023/07/05 10:15:48;;;;;;;9.27;2.75;;;13.00;99.90;;;;;;4810610;29;20059;-79
2023/07/05 10:18:27;;;;;;;8.15;2.25;;;13.00;99.90;;;;;;4811738;29;20065;-79
2023/07/05 10:20:53;;;;;;;14.93;3.30;;;13.10;99.90;;;;;;4810976;29;20050;-79
2023/07/05 10:23:22;;;;;;;7.93;2.10;;;13.10;99.90;;;;;;4810284;29;20042;-83
2023/07/05 10:26:00;;;;;;;11.05;2.30;;;13.10;99.90;;;;;;4806916;29;20418;-79
2023/07/05 10:28:29;;;;;;;8.82;2.35;;;13.00;99.90;;;;;;4805846;29;20055;-79
2023/07/05 10:31:00;;;;;;;8.80;2.33;;;12.90;99.90;;;;;;4869210;24;20114;-80
2023/07/05 10:33:30;;;;;;;8.07;2.10;;;12.90;99.90;;;;;;4824657;29;20054;-80
2023/07/05 10:36:15;;;;;;;11.05;2.35;;;12.80;99.90;;;;;;4823980;29;20054;-80
2023/07/05 10:38:45;;;;;;;9.05;2.33;;;12.70;99.90;;;;;;4824594;29;20054;-80
2023/07/05 10:41:20;;;;;;;7.15;1.98;;;12.60;99.90;;;;;;4825734;29;20402;-80
2023/07/05 10:44:05;;;;;;;10.75;2.47;;;12.60;99.90;;;;;;4824294;29;20054;-79
2023/07/05 10:46:32;;;;;;;8.85;1.90;;;12.60;99.90;;;;;;4824880;29;20475;-80
2023/07/05 10:48:58;;;;;;;8.85;2.20;;;12.50;99.90;;;;;;4823954;29;20495;-80
2023/07/05 10:51:28;;;;;;;10.70;2.53;;;12.70;99.90;;;;;;4826298;29;20508;-80
2023/07/05 10:54:14;;;;;;;8.15;2.10;;;12.40;99.90;;;;;;4825675;29;20046;-81
2023/07/05 10:56:42;;;;;;;7.68;1.98;;;12.40;99.90;;;;;;4805701;29;20073;-80
2023/07/05 10:59:46;;;;;;;7.50;2.05;;;12.40;99.90;;;;;;4825429;29;20601;-85
2023/07/05 11:02:18;;;;;;;7.43;2.00;;;12.40;99.90;;;;;;4816982;29;20046;-81
2023/07/05 11:04:47;;;;;;;8.77;2.20;;;12.30;99.90;;;;;;4807264;29;20476;-79
2023/07/05 11:07:14;;;;;;;9.80;2.38;;;12.30;99.90;;;;;;4809232;29;20055;-79
2023/07/05 11:09:41;;;;;;;9.60;2.47;;;12.20;99.90;;;;;;4816691;29;20138;-80
2023/07/05 11:12:18;;;;;;;7.20;2.13;;;12.10;99.90;;;;;;4815926;29;20157;-79
2023/07/05 11:14:45;;;;;;;9.45;2.58;;;12.10;99.90;;;;;;4805569;29;20042;-79
2023/07/05 11:17:35;;;;;;;9.82;2.42;;;12.10;99.90;;;;;;4813180;29;20046;-79
2023/07/05 11:20:01;;;;;;;11.75;2.75;;;12.00;99.90;;;;;;4822229;29;20058;-79
2023/07/05 11:22:43;;;;;;;14.93;2.92;;;12.00;99.90;;;;;;4825799;29;20049;-79
2023/07/05 11:25:16;;;;;;;9.20;2.58;;;12.00;99.90;;;;;;4824424;29;20047;-79
2023/07/05 11:27:50;;;;;;;12.93;3.03;;;12.00;99.90;;;;;;4823940;29;20046;-79
2023/07/05 11:30:43;;;;;;;12.50;2.97;;;11.90;99.90;;;;;;4823888;29;20062;-79
2023/07/05 11:33:09;;;;;;;10.43;2.70;;;12.00;99.90;;;;;;4824462;29;20061;-79
2023/07/05 11:35:55;;;;;;;9.85;2.70;;;12.00;99.90;;;;;;4825471;29;20395;-79
2023/07/05 11:38:36;;;;;;;11.18;2.85;;;12.10;99.90;;;;;;4821361;29;20179;-79
2023/07/05 11:41:23;;;;;;;13.63;3.55;;;12.00;99.90;;;;;;4824127;29;20551;-80
2023/07/05 11:44:00;;;;;;;12.73;3.15;;;12.10;99.90;;;;;;4815771;29;20133;-80
2023/07/05 11:46:45;;;;;;;12.32;3.05;;;12.80;99.90;;;;;;4821275;29;20374;-81
2023/07/05 11:49:20;;;;;;;10.73;3.20;;;12.10;99.90;;;;;;4822622;29;20059;-80
2023/07/05 11:52:26;;;;;;;11.52;2.80;;;12.10;99.90;;;;;;4818512;29;20524;-81
2023/07/05 11:54:58;;;;;;;8.50;2.80;;;12.10;99.90;;;;;;4814667;29;20088;-80
2023/07/05 11:57:25;;;;;;;10.00;2.63;;;12.10;99.90;;;;;;4813063;29;20440;-80
2023/07/05 12:00:20;;;;;;;10.95;3.10;;;12.20;99.90;;;;;;4828233;29;20469;-80
2023/07/05 12:02:53;;;;;;;;;;;12.20;99.90;;;;;;4812686;29;20085;-80
2023/07/05 12:05:22;;;;;;;11.52;2.85;;;12.30;99.90;;;;;;4814630;29;19960;-80
2023/07/05 12:07:57;;;;;;;12.30;2.97;;;12.30;99.90;;;;;;4812038;29;20054;-80
2023/07/05 12:10:27;;;;;;;12.05;2.90;;;12.30;99.90;;;;;;4812555;29;20178;-80
2023/07/05 12:12:52;;;;;;;8.75;2.40;;;12.30;99.90;;;;;;4811315;29;20452;-81
2023/07/05 12:15:18;;;;;;;10.27;2.53;;;12.30;99.90;;;;;;4808810;29;20042;-81
2023/07/05 12:17:46;;;;;;;8.73;2.35;;;12.40;99.90;;;;;;4810117;29;20047;-80
2023/07/05 12:20:30;;;;;;;10.90;2.90;;;12.40;99.90;;;;;;4812908;29;20419;-80
2023/07/05 12:22:58;;;;;;;9.82;2.47;;;12.40;99.90;;;;;;4812627;29;20050;-81
2023/07/05 12:25:24;;;;;;;8.90;2.58;;;12.50;99.90;;;;;;4810352;29;20049;-81
2023/07/05 12:27:51;;;;;;;8.85;2.63;;;12.40;99.90;;;;;;4814264;29;20487;-81
2023/07/05 12:30:19;;;;;;;10.73;2.65;;;12.50;99.90;;;;;;4809122;29;20414;-80
2023/07/05 12:32:53;;;;;;;10.80;3.13;;;12.50;99.90;;;;;;4812666;29;20093;-81
2023/07/05 12:35:24;;;;;;;;;;;12.40;99.90;;;;;;4811693;29;20148;-81
2023/07/05 12:37:59;;;;;;;11.55;2.70;;;12.50;99.90;;;;;;4813139;29;19991;-81
2023/07/05 12:40:30;;;;;;;11.18;2.70;;;12.60;99.90;;;;;;4813167;29;20681;-80
2023/07/05 12:42:58;;;;;;;11.13;2.92;;;12.70;99.90;;;;;;4807639;29;20062;-80
2023/07/05 12:45:38;;;;;;;14.45;3.38;;;12.70;99.90;;;;;;4815193;29;20058;-81
2023/07/05 12:48:18;;;;;;;8.35;2.67;;;12.90;99.90;;;;;;4817681;29;20050;-80
2023/07/05 12:50:44;;;;;;;13.13;3.35;;;13.10;99.90;;;;;;4808614;29;20046;-80
2023/07/05 12:53:18;;;;;;;14.85;3.00;;;13.30;99.90;;;;;;4814520;29;20051;-80
2023/07/05 12:55:59;;;;;;;12.60;3.53;;;13.30;99.90;;;;;;4811920;29;20711;-80
2023/07/05 12:58:27;;;;;;;11.48;3.97;;;13.20;99.90;;;;;;4812325;29;20043;-79
2023/07/05 13:00:56;;;;;;;13.30;3.72;;;13.10;99.90;;;;;;4810659;29;20058;-79